createdAt,value
2022-09-11T00:01:33.795Z,3.70
2022-09-11T00:04:00.195Z,3.97
2022-09-11T00:06:30.709Z,4.03
2022-09-11T00:09:02.890Z,3.20
2022-09-11T00:11:33.765Z,3.00
2022-09-11T00:14:00.677Z,3.20
2022-09-11T00:16:31.300Z,3.20
2022-09-11T00:19:00.164Z,3.08
2022-09-11T00:21:27.578Z,3.15
2022-09-11T00:23:54.067Z,3.88
2022-09-11T00:26:21.479Z,3.35
2022-09-11T00:28:50.417Z,3.55
2022-09-11T00:33:45.283Z,3.70
2022-09-11T00:36:21.039Z,4.10
2022-09-11T00:38:48.486Z,4.03
2022-09-11T00:41:21.464Z,3.85
2022-09-11T00:43:59.975Z,4.22
2022-09-11T00:46:48.639Z,3.63
2022-09-11T00:49:44.921Z,3.40
2022-09-11T00:52:32.869Z,3.00
2022-09-11T00:55:04.215Z,3.25
2022-09-11T00:57:36.614Z,4.55
2022-09-11T01:00:05.079Z,4.10
2022-09-11T01:02:34.482Z,4.15
2022-09-11T01:05:01.020Z,4.63
2022-09-11T01:07:29.084Z,4.65
2022-09-11T01:09:56.326Z,4.28
2022-09-11T01:12:36.391Z,4.50
2022-09-11T01:15:28.118Z,4.85
2022-09-11T01:18:01.066Z,4.65
2022-09-11T01:21:05.961Z,4.40
2022-09-11T01:23:54.848Z,3.70
2022-09-11T01:26:52.262Z,3.33
2022-09-11T01:29:26.344Z,4.18
2022-09-11T01:32:16.547Z,3.67
2022-09-11T01:34:51.391Z,3.25
2022-09-11T01:37:28.982Z,3.53
2022-09-11T01:40:03.667Z,3.30
2022-09-11T01:42:33.963Z,3.20
2022-09-11T01:45:00.425Z,3.40
2022-09-11T01:47:28.392Z,3.53
2022-09-11T01:50:06.669Z,3.50
2022-09-11T01:52:40.328Z,3.72
2022-09-11T01:55:14.247Z,4.28
2022-09-11T01:57:46.351Z,3.80
2022-09-11T02:00:36.130Z,4.03
2022-09-11T02:03:18.555Z,3.80
2022-09-11T02:05:53.735Z,3.67
2022-09-11T02:08:27.814Z,3.53
2022-09-11T02:11:03.306Z,4.00
2022-09-11T02:13:57.202Z,3.85
2022-09-11T02:16:42.402Z,3.85
2022-09-11T02:19:16.480Z,4.65
2022-09-11T02:21:44.615Z,4.03
2022-09-11T02:24:11.271Z,3.92
2022-09-11T02:26:42.347Z,4.72
2022-09-11T02:29:08.859Z,4.10
2022-09-11T02:31:39.908Z,4.68
2022-09-11T02:34:06.237Z,4.18
2022-09-11T02:36:40.520Z,5.15
2022-09-11T02:39:22.856Z,4.40
2022-09-11T02:42:23.195Z,4.30
2022-09-11T02:45:28.601Z,4.90
2022-09-11T02:48:02.725Z,5.32
2022-09-11T02:50:50.128Z,5.40
2022-09-11T02:53:39.307Z,6.43
2022-09-11T02:56:15.922Z,6.03
2022-09-11T02:58:50.880Z,5.55
2022-09-11T03:01:17.624Z,4.65
2022-09-11T03:03:46.414Z,5.28
2022-09-11T03:08:44.527Z,5.00
2022-09-11T03:11:11.334Z,5.32
2022-09-11T03:13:38.147Z,5.40
2022-09-11T03:16:05.418Z,5.38
2022-09-11T03:18:33.044Z,5.53
2022-09-11T03:21:00.810Z,6.47
2022-09-11T03:23:27.822Z,6.15
2022-09-11T03:25:55.467Z,7.00
2022-09-11T03:28:22.783Z,5.70
2022-09-11T03:30:50.110Z,5.63
2022-09-11T03:33:19.368Z,5.85
2022-09-11T03:35:47.155Z,5.20
2022-09-11T03:38:13.609Z,5.78
2022-09-11T03:40:43.141Z,6.18
2022-09-11T03:43:09.587Z,5.43
2022-09-11T03:45:35.914Z,5.75
2022-09-11T03:48:02.340Z,5.35
2022-09-11T03:50:28.660Z,6.00
2022-09-11T03:52:55.156Z,6.68
2022-09-11T03:55:23.656Z,6.57
2022-09-11T03:57:49.957Z,6.65
2022-09-11T04:00:16.641Z,5.88
2022-09-11T04:02:42.980Z,6.28
2022-09-11T04:05:09.443Z,6.22
2022-09-11T04:07:35.800Z,5.38
2022-09-11T04:10:02.169Z,5.97
2022-09-11T04:12:28.971Z,5.88
2022-09-11T04:14:57.011Z,5.85
2022-09-11T04:17:24.399Z,5.45
2022-09-11T04:19:50.728Z,6.07
2022-09-11T04:22:17.050Z,5.75
2022-09-11T04:24:43.341Z,6.57
2022-09-11T04:27:09.637Z,6.28
2022-09-11T04:29:36.013Z,5.95
2022-09-11T04:32:02.684Z,6.03
2022-09-11T04:34:28.980Z,6.72
2022-09-11T04:36:56.041Z,5.95
2022-09-11T04:39:22.999Z,6.63
2022-09-11T04:41:49.399Z,5.93
2022-09-11T04:44:15.878Z,5.93
2022-09-11T04:46:42.781Z,5.93
2022-09-11T04:49:10.645Z,5.90
2022-09-11T04:51:38.261Z,7.15
2022-09-11T04:54:05.170Z,6.93
2022-09-11T04:56:34.568Z,6.28
2022-09-11T04:59:07.156Z,6.90
2022-09-11T05:01:34.045Z,7.60
2022-09-11T05:04:01.582Z,6.93
2022-09-11T05:06:30.156Z,6.93
2022-09-11T05:08:56.824Z,7.68
2022-09-11T05:11:23.759Z,6.95
2022-09-11T05:13:50.146Z,7.70
2022-09-11T05:16:17.704Z,7.40
2022-09-11T05:18:51.901Z,6.53
2022-09-11T05:21:18.999Z,6.70
2022-09-11T05:23:50.515Z,6.57
2022-09-11T05:26:21.591Z,5.95
2022-09-11T05:28:47.940Z,7.43
2022-09-11T05:31:18.444Z,6.88
2022-09-11T05:33:45.578Z,7.60
2022-09-11T05:36:14.472Z,8.25
2022-09-11T05:38:41.720Z,6.13
2022-09-11T05:41:11.511Z,5.97
2022-09-11T05:43:38.978Z,5.53
2022-09-11T05:46:06.680Z,5.22
2022-09-11T05:48:34.831Z,5.93
2022-09-11T05:51:07.009Z,6.07
2022-09-11T05:53:34.344Z,6.40
2022-09-11T05:56:17.948Z,6.70
2022-09-11T05:58:46.061Z,6.25
2022-09-11T06:01:13.640Z,7.32
2022-09-11T06:03:40.715Z,6.15
2022-09-11T06:06:09.983Z,5.55
2022-09-11T06:08:37.769Z,5.97
2022-09-11T06:11:07.379Z,5.60
2022-09-11T06:13:36.165Z,5.60
2022-09-11T06:16:03.150Z,7.88
2022-09-11T06:18:29.965Z,8.10
2022-09-11T06:21:01.771Z,7.90
2022-09-11T06:23:28.196Z,7.97
2022-09-11T06:26:02.889Z,8.48
2022-09-11T06:28:29.179Z,7.07
2022-09-11T06:30:55.522Z,7.85
2022-09-11T06:33:21.947Z,8.25
2022-09-11T06:35:58.693Z,8.27
2022-09-11T06:38:26.655Z,7.93
2022-09-11T06:40:54.097Z,8.90
2022-09-11T06:43:21.148Z,7.85
2022-09-11T06:45:48.241Z,9.30
2022-09-11T06:48:16.522Z,9.13
2022-09-11T06:50:43.394Z,8.75
2022-09-11T06:53:11.281Z,7.95
2022-09-11T06:55:39.139Z,8.80
2022-09-11T06:58:06.451Z,8.05
2022-09-11T07:00:34.566Z,8.55
2022-09-11T07:03:02.055Z,8.85
2022-09-11T07:05:28.653Z,8.30
2022-09-11T07:07:55.898Z,7.82
2022-09-11T07:10:23.111Z,7.25
2022-09-11T07:12:52.670Z,6.75
2022-09-11T07:15:18.984Z,7.50
2022-09-11T07:17:45.345Z,7.13
2022-09-11T07:20:11.743Z,6.93
2022-09-11T07:22:38.197Z,7.75
2022-09-11T07:25:07.670Z,8.18
2022-09-11T07:27:34.191Z,7.47
2022-09-11T07:30:00.515Z,7.05
2022-09-11T07:32:27.379Z,6.93
2022-09-11T07:34:53.778Z,7.00
2022-09-11T07:37:20.154Z,7.80
2022-09-11T07:39:46.984Z,7.30
2022-09-11T07:42:13.523Z,6.93
2022-09-11T07:44:39.865Z,7.45
2022-09-11T07:47:06.559Z,8.20
2022-09-11T07:49:32.907Z,8.25
2022-09-11T07:51:59.270Z,8.10
2022-09-11T07:54:29.092Z,8.05
2022-09-11T07:56:56.070Z,7.72
2022-09-11T07:59:22.801Z,7.53
2022-09-11T08:01:53.427Z,7.32
2022-09-11T08:04:19.972Z,8.00
2022-09-11T08:06:46.439Z,8.57
2022-09-11T08:09:17.333Z,9.13
2022-09-11T08:11:46.947Z,9.13
2022-09-11T08:14:14.206Z,11.23
2022-09-11T08:16:43.203Z,11.82
2022-09-11T08:19:22.030Z,11.98
2022-09-11T08:21:49.727Z,11.30
2022-09-11T08:24:17.212Z,10.38
2022-09-11T08:26:48.603Z,10.70
2022-09-11T08:29:15.543Z,11.02
2022-09-11T08:31:44.146Z,8.40
2022-09-11T08:36:37.726Z,8.23
2022-09-11T08:39:05.123Z,8.98
2022-09-11T08:41:49.566Z,8.70
2022-09-11T08:44:38.988Z,8.73
2022-09-11T08:47:12.707Z,8.90
2022-09-11T08:49:43.784Z,9.02
2022-09-11T08:52:13.844Z,8.90
2022-09-11T08:54:43.877Z,8.80
2022-09-11T08:57:18.884Z,10.48
2022-09-11T09:00:16.395Z,10.77
2022-09-11T09:03:03.052Z,11.82
2022-09-11T09:05:55.774Z,11.00
2022-09-11T09:08:35.085Z,11.43
2022-09-11T09:11:14.071Z,11.02
2022-09-11T09:14:06.582Z,11.02
2022-09-11T09:16:46.603Z,10.15
2022-09-11T09:19:23.290Z,10.00
2022-09-11T09:22:05.672Z,8.82
2022-09-11T09:24:40.450Z,7.88
2022-09-11T09:27:14.970Z,7.90
2022-09-11T09:29:45.073Z,8.25
2022-09-11T09:32:20.852Z,10.52
2022-09-11T09:34:50.360Z,8.30
2022-09-11T09:37:21.883Z,10.05
2022-09-11T09:39:48.830Z,9.68
2022-09-11T09:42:30.466Z,8.90
2022-09-11T09:45:21.404Z,8.05
2022-09-11T09:47:49.244Z,8.13
2022-09-11T09:50:29.587Z,8.70
2022-09-11T09:53:11.708Z,8.85
2022-09-11T09:55:40.925Z,8.32
2022-09-11T09:58:07.534Z,8.45
2022-09-11T10:00:37.108Z,9.13
2022-09-11T10:03:24.238Z,8.55
2022-09-11T10:05:53.755Z,8.40
2022-09-11T10:08:33.977Z,8.23
2022-09-11T10:11:03.674Z,8.25
2022-09-11T10:13:52.114Z,7.88
2022-09-11T12:06:59.258Z,8.98
2022-09-11T12:09:30.374Z,9.25
2022-09-11T12:12:06.270Z,8.90
2022-09-11T12:14:36.185Z,9.65
2022-09-11T12:17:27.211Z,8.95
2022-09-11T12:20:12.152Z,8.93
2022-09-11T12:22:46.784Z,9.02
2022-09-11T12:25:19.253Z,8.32
2022-09-11T12:27:54.286Z,9.43
2022-09-11T12:30:24.942Z,8.45
2022-09-11T12:33:02.252Z,8.35
2022-09-11T12:35:43.896Z,8.98
2022-09-11T12:38:32.403Z,8.32
2022-09-11T12:41:07.239Z,8.52
2022-09-11T12:43:36.535Z,7.78
2022-09-11T12:46:05.999Z,8.68
2022-09-11T12:48:38.542Z,8.68
2022-09-11T12:51:15.201Z,8.25
2022-09-11T12:53:47.060Z,7.88
2022-09-11T12:56:20.167Z,8.45
2022-09-11T12:58:52.096Z,7.95
2022-09-11T13:22:31.056Z,7.60
2022-09-11T13:25:19.871Z,7.78
2022-09-11T13:27:51.725Z,8.00
2022-09-11T13:30:21.559Z,7.55
2022-09-11T13:32:54.225Z,7.90
2022-09-11T13:35:26.914Z,7.25
2022-09-11T13:37:58.398Z,6.78
2022-09-11T13:40:33.285Z,6.90
2022-09-11T13:43:00.905Z,7.07
2022-09-11T13:45:28.656Z,6.80
2022-09-11T13:47:55.367Z,7.30
2022-09-11T13:50:23.244Z,7.35
2022-09-11T13:52:53.200Z,7.40
2022-09-11T13:55:23.520Z,7.55
2022-09-11T13:57:53.120Z,7.18
2022-09-11T14:00:39.774Z,7.90
2022-09-11T14:03:21.535Z,6.88
2022-09-11T14:05:54.003Z,7.53
2022-09-11T14:08:29.766Z,7.35
2022-09-11T14:11:01.139Z,7.07
2022-09-11T14:13:42.235Z,7.25
2022-09-11T14:16:20.019Z,6.63
2022-09-11T14:19:01.073Z,7.15
2022-09-11T14:21:36.365Z,6.00
2022-09-11T14:24:07.036Z,5.50
2022-09-11T14:26:36.489Z,5.30
2022-09-11T14:29:06.099Z,5.53
2022-09-11T14:31:41.115Z,6.32
2022-09-11T14:34:13.042Z,5.55
2022-09-11T14:36:43.969Z,5.47
2022-09-11T14:39:19.048Z,5.40
2022-09-11T14:41:45.724Z,5.68
2022-09-11T14:44:14.696Z,4.72
2022-09-11T14:46:41.127Z,4.70
2022-09-11T14:49:09.299Z,4.85
2022-09-11T14:51:37.850Z,5.15
2022-09-11T14:54:14.029Z,4.82
2022-09-11T14:56:40.808Z,4.50
2022-09-11T14:59:07.207Z,4.82
2022-09-11T15:01:33.687Z,4.55
2022-09-11T15:04:01.803Z,4.95
2022-09-11T15:06:28.214Z,4.13
2022-09-11T15:08:54.666Z,4.57
2022-09-11T15:11:23.717Z,5.40
2022-09-11T15:14:13.271Z,4.53
2022-09-11T15:16:36.390Z,4.57
2022-09-11T15:19:03.265Z,4.30
2022-09-11T15:21:32.042Z,4.72
2022-09-11T15:24:04.535Z,3.78
2022-09-11T15:26:34.755Z,4.13
2022-09-11T15:29:01.175Z,4.28
2022-09-11T15:31:28.247Z,4.88
2022-09-11T15:33:54.803Z,4.35
2022-09-11T15:36:22.891Z,4.20
2022-09-11T15:38:53.994Z,4.13
2022-09-11T15:41:25.447Z,3.90
2022-09-11T15:43:52.410Z,5.18
2022-09-11T15:46:25.067Z,4.50
2022-09-11T15:48:52.231Z,4.20
2022-09-11T15:51:23.482Z,5.13
2022-09-11T15:53:53.112Z,4.70
2022-09-11T15:56:25.942Z,4.38
2022-09-11T15:58:52.674Z,4.43
2022-09-11T16:01:24.907Z,4.60
2022-09-11T16:03:52.878Z,4.72
2022-09-11T16:06:20.814Z,5.43
2022-09-11T16:08:50.836Z,4.75
2022-09-11T16:11:18.377Z,4.50
2022-09-11T16:13:49.760Z,4.45
2022-09-11T16:16:16.167Z,5.00
2022-09-11T16:18:42.823Z,4.68
2022-09-11T16:21:11.662Z,5.15
2022-09-11T16:23:39.150Z,4.78
2022-09-11T16:26:08.483Z,4.10
2022-09-11T16:28:37.935Z,4.10
2022-09-11T16:31:05.786Z,4.30
2022-09-11T16:33:34.252Z,5.05
2022-09-11T16:36:05.944Z,4.80
2022-09-11T16:38:33.438Z,5.38
2022-09-11T16:41:01.731Z,5.47
2022-09-11T16:43:28.212Z,5.40
2022-09-11T16:45:54.575Z,5.40
2022-09-11T16:48:21.427Z,5.10
2022-09-11T16:50:55.501Z,6.07
2022-09-11T16:53:23.184Z,4.60
2022-09-11T16:55:49.511Z,5.70
2022-09-11T16:58:16.204Z,4.90
2022-09-11T17:00:43.020Z,4.82
2022-09-11T17:03:10.428Z,5.45
2022-09-11T17:05:36.998Z,5.45
2022-09-11T17:08:03.671Z,5.68
2022-09-11T17:10:30.420Z,5.70
2022-09-11T17:12:56.811Z,5.60
2022-09-11T17:15:25.241Z,6.47
2022-09-11T17:17:54.396Z,5.57
2022-09-11T17:20:20.727Z,5.70
2022-09-11T17:22:47.033Z,6.35
2022-09-11T17:25:13.322Z,6.20
2022-09-11T17:27:39.921Z,5.68
2022-09-11T17:30:06.804Z,5.72
2022-09-11T17:32:33.149Z,5.50
2022-09-11T17:34:59.522Z,5.97
2022-09-11T17:37:26.613Z,5.88
2022-09-11T17:39:53.614Z,6.55
2022-09-11T17:42:20.023Z,6.05
2022-09-11T17:44:50.125Z,5.78
2022-09-11T17:47:16.438Z,6.47
2022-09-11T17:49:42.949Z,6.68
2022-09-11T17:52:09.625Z,6.25
2022-09-11T17:54:35.944Z,7.00
2022-09-11T17:57:02.288Z,6.60
2022-09-11T17:59:28.673Z,8.35
2022-09-11T18:01:59.907Z,6.38
2022-09-11T18:04:26.893Z,7.05
2022-09-11T18:06:53.318Z,7.75
2022-09-11T18:09:20.034Z,6.93
2022-09-11T18:11:49.795Z,6.05
2022-09-11T18:14:21.045Z,7.35
2022-09-11T18:16:47.966Z,6.82
2022-09-11T18:19:22.035Z,7.25
2022-09-11T18:21:50.670Z,6.35
2022-09-11T18:24:23.889Z,7.10
2022-09-11T18:26:57.258Z,7.35
2022-09-11T18:29:26.853Z,7.65
2022-09-11T18:31:53.590Z,7.78
2022-09-11T18:34:23.247Z,7.50
2022-09-11T18:36:52.803Z,7.45
2022-09-11T18:39:22.555Z,7.22
2022-09-11T18:41:54.815Z,7.72
2022-09-11T18:44:24.476Z,8.00
2022-09-11T18:46:54.857Z,7.68
2022-09-11T18:49:22.151Z,7.03
2022-09-11T18:51:48.827Z,7.82
2022-09-11T18:54:18.169Z,9.45
2022-09-11T18:56:45.398Z,9.75
2022-09-11T18:59:12.985Z,8.73
2022-09-11T19:01:39.877Z,9.02
2022-09-11T19:04:10.030Z,10.32
2022-09-11T19:06:38.609Z,9.10
2022-09-11T20:10:42.893Z,11.23
2022-09-11T20:13:09.187Z,10.15
2022-09-11T20:15:36.214Z,12.88
2022-09-11T20:18:03.030Z,10.13
2022-09-11T20:20:30.127Z,10.80
2022-09-11T20:22:56.427Z,10.55
2022-09-11T20:25:22.870Z,9.95
2022-09-11T20:27:49.261Z,10.55
2022-09-11T20:30:15.643Z,10.93
2022-09-11T20:32:42.134Z,11.40
2022-09-11T20:35:09.408Z,10.85
2022-09-11T20:37:35.876Z,10.60
2022-09-11T20:40:03.884Z,11.40
2022-09-11T20:42:30.256Z,10.13
2022-09-11T20:44:57.323Z,11.32
2022-09-11T20:47:23.795Z,11.13
2022-09-11T20:49:50.268Z,11.10
2022-09-11T20:52:16.913Z,10.23
2022-09-11T20:54:43.465Z,11.45
2022-09-11T20:57:09.900Z,10.82
2022-09-11T20:59:36.549Z,11.55
2022-09-11T21:02:02.975Z,11.95
2022-09-11T21:04:29.355Z,11.50
2022-09-11T21:06:55.657Z,10.98
2022-09-11T21:09:25.250Z,11.13
2022-09-11T21:11:51.705Z,9.80
2022-09-11T21:14:19.064Z,10.40
2022-09-11T21:16:45.374Z,9.80
2022-09-11T21:19:11.655Z,10.85
2022-09-11T21:21:38.106Z,10.90
2022-09-11T21:24:06.187Z,11.15
2022-09-11T21:26:33.343Z,11.77
2022-09-11T21:29:02.177Z,21.98
2022-09-11T21:31:29.247Z,14.35
2022-09-11T21:33:56.297Z,12.35
2022-09-11T21:36:28.939Z,11.90
2022-09-11T21:38:55.601Z,21.30
2022-09-11T21:41:21.951Z,14.00
2022-09-11T21:43:48.446Z,11.43
2022-09-11T21:46:14.947Z,12.35
2022-09-11T21:48:41.623Z,10.75
2022-09-11T21:51:15.335Z,9.88
2022-09-11T21:53:45.515Z,10.30
2022-09-11T21:56:24.745Z,10.73
2022-09-11T21:58:51.512Z,10.65
2022-09-11T22:01:19.774Z,12.00
2022-09-11T22:03:46.326Z,11.55
2022-09-11T22:06:13.490Z,10.65
2022-09-11T22:08:43.015Z,10.73
2022-09-11T22:11:11.086Z,11.73
2022-09-11T22:13:38.153Z,12.52
2022-09-11T22:16:11.704Z,11.65
2022-09-11T22:18:39.946Z,12.82
2022-09-11T22:21:07.825Z,12.52
2022-09-11T22:23:34.475Z,12.40
2022-09-11T22:26:07.633Z,10.57
2022-09-11T22:28:34.785Z,11.60
2022-09-11T22:31:07.170Z,10.50
2022-09-11T22:33:33.637Z,12.45
2022-09-11T22:36:07.246Z,13.00
2022-09-11T22:38:33.567Z,13.90
2022-09-11T22:40:59.874Z,12.15
2022-09-11T22:43:26.224Z,14.85
2022-09-11T22:45:53.509Z,47.15
2022-09-11T22:48:19.888Z,14.05
2022-09-11T22:50:46.237Z,15.27
2022-09-11T22:53:12.957Z,14.57
2022-09-11T22:55:46.771Z,9.65
2022-09-11T22:58:13.415Z,10.93
2022-09-11T23:00:40.587Z,27.83
2022-09-11T23:03:07.256Z,10.52
2022-09-11T23:05:52.912Z,11.05
2022-09-11T23:08:19.952Z,10.40
2022-09-11T23:10:47.090Z,9.82
2022-09-11T23:13:14.413Z,10.10
2022-09-11T23:15:41.102Z,41.10
2022-09-11T23:18:07.396Z,11.57
2022-09-11T23:20:33.922Z,12.55
2022-09-11T23:23:03.207Z,10.80
2022-09-11T23:25:29.497Z,10.93
2022-09-11T23:27:55.769Z,11.35
2022-09-11T23:30:22.048Z,11.77
2022-09-11T23:32:48.336Z,22.42
2022-09-11T23:35:14.735Z,11.63
2022-09-11T23:37:44.798Z,11.05
2022-09-11T23:40:11.754Z,10.07
2022-09-11T23:42:38.116Z,11.60
2022-09-11T23:45:04.780Z,13.02
2022-09-11T23:47:31.171Z,11.65
2022-09-11T23:49:57.636Z,12.10
2022-09-11T23:52:23.989Z,12.05
2022-09-11T23:54:50.579Z,12.05
2022-09-11T23:57:16.892Z,10.98
2022-09-11T23:59:43.181Z,14.43
